sensor_id;sensor_type;location;lat;lon;timestamp;P1;durP1;ratioP1;P2;durP2;ratioP2
46597;SDS011;32318;48.858;8.252;2024-02-15T00:00:51;8.68;;;1.50;;
46597;SDS011;32318;48.858;8.252;2024-02-15T00:08:52;11.30;;;1.65;;
46597;SDS011;32318;48.858;8.252;2024-02-15T00:16:52;5.68;;;1.92;;
46597;SDS011;32318;48.858;8.252;2024-02-15T00:24:59;3.38;;;1.38;;
46597;SDS011;32318;48.858;8.252;2024-02-15T00:33:00;4.03;;;1.38;;
46597;SDS011;32318;48.858;8.252;2024-02-15T00:41:02;7.18;;;1.65;;
46597;SDS011;32318;48.858;8.252;2024-02-15T00:49:04;8.95;;;1.40;;
46597;SDS011;32318;48.858;8.252;2024-02-15T00:57:08;3.83;;;1.48;;
46597;SDS011;32318;48.858;8.252;2024-02-15T01:05:08;6.43;;;1.52;;
46597;SDS011;32318;48.858;8.252;2024-02-15T01:13:09;7.18;;;2.20;;
46597;SDS011;32318;48.858;8.252;2024-02-15T01:21:10;4.25;;;1.48;;
46597;SDS011;32318;48.858;8.252;2024-02-15T01:29:11;5.82;;;1.90;;
46597;SDS011;32318;48.858;8.252;2024-02-15T01:37:12;6.13;;;1.45;;
46597;SDS011;32318;48.858;8.252;2024-02-15T01:45:12;6.45;;;1.52;;
46597;SDS011;32318;48.858;8.252;2024-02-15T01:53:12;8.65;;;1.95;;
46597;SDS011;32318;48.858;8.252;2024-02-15T02:01:13;5.82;;;1.58;;
46597;SDS011;32318;48.858;8.252;2024-02-15T02:09:14;2.85;;;1.33;;
46597;SDS011;32318;48.858;8.252;2024-02-15T02:17:16;6.18;;;1.75;;
46597;SDS011;32318;48.858;8.252;2024-02-15T02:25:16;5.07;;;1.73;;
46597;SDS011;32318;48.858;8.252;2024-02-15T02:33:18;5.00;;;1.80;;
46597;SDS011;32318;48.858;8.252;2024-02-15T02:41:18;7.32;;;1.95;;
46597;SDS011;32318;48.858;8.252;2024-02-15T02:49:19;5.55;;;1.40;;
46597;SDS011;32318;48.858;8.252;2024-02-15T02:57:19;3.28;;;1.63;;
46597;SDS011;32318;48.858;8.252;2024-02-15T03:05:20;6.38;;;1.50;;
46597;SDS011;32318;48.858;8.252;2024-02-15T03:13:20;5.88;;;1.40;;
46597;SDS011;32318;48.858;8.252;2024-02-15T03:21:22;4.90;;;1.50;;
46597;SDS011;32318;48.858;8.252;2024-02-15T03:29:22;3.17;;;1.45;;
46597;SDS011;32318;48.858;8.252;2024-02-15T03:37:22;10.20;;;1.50;;
46597;SDS011;32318;48.858;8.252;2024-02-15T03:45:23;9.43;;;1.50;;
46597;SDS011;32318;48.858;8.252;2024-02-15T03:53:24;6.95;;;1.83;;
46597;SDS011;32318;48.858;8.252;2024-02-15T04:01:26;6.78;;;1.70;;
46597;SDS011;32318;48.858;8.252;2024-02-15T04:09:27;4.63;;;1.40;;
46597;SDS011;32318;48.858;8.252;2024-02-15T04:17:27;7.13;;;1.60;;
46597;SDS011;32318;48.858;8.252;2024-02-15T04:25:30;4.82;;;1.50;;
46597;SDS011;32318;48.858;8.252;2024-02-15T04:33:31;4.88;;;1.80;;
46597;SDS011;32318;48.858;8.252;2024-02-15T04:41:32;5.82;;;1.88;;
46597;SDS011;32318;48.858;8.252;2024-02-15T04:49:32;4.18;;;1.38;;
46597;SDS011;32318;48.858;8.252;2024-02-15T04:57:33;6.57;;;1.50;;
46597;SDS011;32318;48.858;8.252;2024-02-15T05:05:36;5.30;;;1.33;;
46597;SDS011;32318;48.858;8.252;2024-02-15T05:13:39;5.90;;;1.33;;
46597;SDS011;32318;48.858;8.252;2024-02-15T05:21:39;3.65;;;1.30;;
46597;SDS011;32318;48.858;8.252;2024-02-15T05:29:40;4.30;;;1.42;;
46597;SDS011;32318;48.858;8.252;2024-02-15T05:37:43;4.65;;;1.40;;
46597;SDS011;32318;48.858;8.252;2024-02-15T05:45:43;5.05;;;1.30;;
46597;SDS011;32318;48.858;8.252;2024-02-15T05:53:47;5.88;;;1.48;;
46597;SDS011;32318;48.858;8.252;2024-02-15T06:01:49;6.20;;;1.95;;
46597;SDS011;32318;48.858;8.252;2024-02-15T06:09:49;4.80;;;1.50;;
46597;SDS011;32318;48.858;8.252;2024-02-15T06:17:49;4.40;;;1.17;;
46597;SDS011;32318;48.858;8.252;2024-02-15T06:25:51;4.25;;;1.23;;
46597;SDS011;32318;48.858;8.252;2024-02-15T06:33:56;5.28;;;1.40;;
46597;SDS011;32318;48.858;8.252;2024-02-15T06:42:15;7.20;;;1.63;;
46597;SDS011;32318;48.858;8.252;2024-02-15T06:50:18;4.35;;;1.23;;
46597;SDS011;32318;48.858;8.252;2024-02-15T06:58:18;2.78;;;1.10;;
46597;SDS011;32318;48.858;8.252;2024-02-15T07:06:20;4.88;;;1.20;;
46597;SDS011;32318;48.858;8.252;2024-02-15T07:14:21;6.53;;;1.48;;
46597;SDS011;32318;48.858;8.252;2024-02-15T07:22:22;5.60;;;1.17;;
46597;SDS011;32318;48.858;8.252;2024-02-15T07:30:22;8.98;;;1.50;;
46597;SDS011;32318;48.858;8.252;2024-02-15T07:38:22;8.10;;;1.55;;
46597;SDS011;32318;48.858;8.252;2024-02-15T07:46:23;4.78;;;1.10;;
46597;SDS011;32318;48.858;8.252;2024-02-15T07:54:24;7.82;;;1.17;;
46597;SDS011;32318;48.858;8.252;2024-02-15T08:02:29;9.52;;;1.02;;
46597;SDS011;32318;48.858;8.252;2024-02-15T08:10:30;9.45;;;1.48;;
46597;SDS011;32318;48.858;8.252;2024-02-15T08:18:30;6.18;;;1.30;;
46597;SDS011;32318;48.858;8.252;2024-02-15T08:26:35;4.63;;;1.45;;
46597;SDS011;32318;48.858;8.252;2024-02-15T08:34:37;3.03;;;1.10;;
46597;SDS011;32318;48.858;8.252;2024-02-15T08:42:38;8.27;;;1.40;;
46597;SDS011;32318;48.858;8.252;2024-02-15T08:50:42;6.57;;;2.08;;
46597;SDS011;32318;48.858;8.252;2024-02-15T08:58:45;13.82;;;3.33;;
46597;SDS011;32318;48.858;8.252;2024-02-15T09:06:46;10.60;;;2.15;;
46597;SDS011;32318;48.858;8.252;2024-02-15T09:14:46;7.35;;;2.17;;
46597;SDS011;32318;48.858;8.252;2024-02-15T09:22:48;7.05;;;2.25;;
46597;SDS011;32318;48.858;8.252;2024-02-15T09:30:50;4.63;;;1.80;;
46597;SDS011;32318;48.858;8.252;2024-02-15T09:38:55;7.35;;;2.00;;
46597;SDS011;32318;48.858;8.252;2024-02-15T09:47:02;6.60;;;1.80;;
46597;SDS011;32318;48.858;8.252;2024-02-15T09:55:05;9.40;;;1.80;;
46597;SDS011;32318;48.858;8.252;2024-02-15T10:03:10;6.50;;;1.65;;
46597;SDS011;32318;48.858;8.252;2024-02-15T10:11:12;7.75;;;1.60;;
46597;SDS011;32318;48.858;8.252;2024-02-15T10:19:13;6.00;;;1.70;;
46597;SDS011;32318;48.858;8.252;2024-02-15T10:27:15;6.40;;;1.90;;
46597;SDS011;32318;48.858;8.252;2024-02-15T10:35:23;17.00;;;2.20;;
46597;SDS011;32318;48.858;8.252;2024-02-15T10:43:25;7.05;;;1.75;;
46597;SDS011;32318;48.858;8.252;2024-02-15T10:51:25;11.50;;;2.60;;
46597;SDS011;32318;48.858;8.252;2024-02-15T10:59:28;3.85;;;1.38;;
46597;SDS011;32318;48.858;8.252;2024-02-15T11:07:35;7.20;;;1.83;;
46597;SDS011;32318;48.858;8.252;2024-02-15T11:23:36;8.15;;;1.58;;
46597;SDS011;32318;48.858;8.252;2024-02-15T11:31:55;4.13;;;1.30;;
46597;SDS011;32318;48.858;8.252;2024-02-15T11:39:58;7.25;;;1.33;;
46597;SDS011;32318;48.858;8.252;2024-02-15T11:47:59;6.75;;;1.20;;
46597;SDS011;32318;48.858;8.252;2024-02-15T11:56:00;7.90;;;1.77;;
46597;SDS011;32318;48.858;8.252;2024-02-15T12:04:02;11.25;;;2.00;;
46597;SDS011;32318;48.858;8.252;2024-02-15T12:12:50;4.97;;;1.52;;
46597;SDS011;32318;48.858;8.252;2024-02-15T12:21:09;7.20;;;1.20;;
46597;SDS011;32318;48.858;8.252;2024-02-15T12:29:16;9.57;;;3.35;;
46597;SDS011;32318;48.858;8.252;2024-02-15T12:37:17;7.73;;;1.60;;
46597;SDS011;32318;48.858;8.252;2024-02-15T12:45:20;6.00;;;1.23;;
46597;SDS011;32318;48.858;8.252;2024-02-15T12:53:21;15.00;;;1.70;;
46597;SDS011;32318;48.858;8.252;2024-02-15T13:01:22;8.35;;;1.20;;
46597;SDS011;32318;48.858;8.252;2024-02-15T13:09:23;4.90;;;1.30;;
46597;SDS011;32318;48.858;8.252;2024-02-15T13:17:24;5.47;;;1.30;;
46597;SDS011;32318;48.858;8.252;2024-02-15T13:25:26;6.88;;;1.40;;
46597;SDS011;32318;48.858;8.252;2024-02-15T13:33:27;4.00;;;1.30;;
46597;SDS011;32318;48.858;8.252;2024-02-15T13:41:31;4.03;;;1.48;;
46597;SDS011;32318;48.858;8.252;2024-02-15T13:49:31;8.75;;;1.23;;
46597;SDS011;32318;48.858;8.252;2024-02-15T13:57:34;17.15;;;2.60;;
46597;SDS011;32318;48.858;8.252;2024-02-15T14:05:34;21.80;;;1.67;;
46597;SDS011;32318;48.858;8.252;2024-02-15T14:13:35;4.63;;;1.00;;
46597;SDS011;32318;48.858;8.252;2024-02-15T14:21:35;42.58;;;3.42;;
46597;SDS011;32318;48.858;8.252;2024-02-15T14:29:38;4.65;;;1.17;;
46597;SDS011;32318;48.858;8.252;2024-02-15T14:37:44;5.47;;;1.40;;
46597;SDS011;32318;48.858;8.252;2024-02-15T14:45:45;8.02;;;1.75;;
46597;SDS011;32318;48.858;8.252;2024-02-15T14:53:45;15.70;;;1.85;;
46597;SDS011;32318;48.858;8.252;2024-02-15T15:01:46;6.93;;;1.27;;
46597;SDS011;32318;48.858;8.252;2024-02-15T15:09:46;4.70;;;1.20;;
46597;SDS011;32318;48.858;8.252;2024-02-15T15:18:13;7.38;;;1.60;;
46597;SDS011;32318;48.858;8.252;2024-02-15T15:26:18;13.13;;;1.70;;
46597;SDS011;32318;48.858;8.252;2024-02-15T15:34:24;5.18;;;1.40;;
46597;SDS011;32318;48.858;8.252;2024-02-15T15:42:25;7.38;;;1.58;;
46597;SDS011;32318;48.858;8.252;2024-02-15T15:50:26;16.60;;;1.90;;
46597;SDS011;32318;48.858;8.252;2024-02-15T15:58:29;12.05;;;1.92;;
46597;SDS011;32318;48.858;8.252;2024-02-15T16:06:29;5.65;;;1.30;;
46597;SDS011;32318;48.858;8.252;2024-02-15T16:14:30;5.50;;;1.48;;
46597;SDS011;32318;48.858;8.252;2024-02-15T16:22:31;3.65;;;1.20;;
46597;SDS011;32318;48.858;8.252;2024-02-15T16:30:37;18.02;;;3.33;;
46597;SDS011;32318;48.858;8.252;2024-02-15T16:38:39;13.88;;;4.43;;
46597;SDS011;32318;48.858;8.252;2024-02-15T16:46:43;11.98;;;2.42;;
46597;SDS011;32318;48.858;8.252;2024-02-15T16:54:48;10.40;;;2.67;;
46597;SDS011;32318;48.858;8.252;2024-02-15T17:02:48;7.15;;;1.88;;
46597;SDS011;32318;48.858;8.252;2024-02-15T17:10:48;7.65;;;1.95;;
46597;SDS011;32318;48.858;8.252;2024-02-15T17:18:49;11.00;;;2.05;;
46597;SDS011;32318;48.858;8.252;2024-02-15T17:26:50;62.28;;;20.02;;
46597;SDS011;32318;48.858;8.252;2024-02-15T17:34:52;39.13;;;11.50;;
46597;SDS011;32318;48.858;8.252;2024-02-15T17:42:53;80.40;;;21.63;;
46597;SDS011;32318;48.858;8.252;2024-02-15T17:50:54;164.95;;;58.95;;
46597;SDS011;32318;48.858;8.252;2024-02-15T17:58:54;95.60;;;33.13;;
46597;SDS011;32318;48.858;8.252;2024-02-15T18:06:54;63.10;;;25.88;;
46597;SDS011;32318;48.858;8.252;2024-02-15T18:14:58;27.70;;;10.93;;
46597;SDS011;32318;48.858;8.252;2024-02-15T18:22:59;16.83;;;5.90;;
46597;SDS011;32318;48.858;8.252;2024-02-15T18:31:01;26.98;;;8.88;;
46597;SDS011;32318;48.858;8.252;2024-02-15T18:39:02;16.77;;;4.53;;
46597;SDS011;32318;48.858;8.252;2024-02-15T18:47:03;17.08;;;5.93;;
46597;SDS011;32318;48.858;8.252;2024-02-15T18:55:03;17.20;;;5.03;;
46597;SDS011;32318;48.858;8.252;2024-02-15T19:03:04;15.18;;;4.25;;
46597;SDS011;32318;48.858;8.252;2024-02-15T19:11:14;17.20;;;5.45;;
46597;SDS011;32318;48.858;8.252;2024-02-15T19:19:15;19.00;;;6.93;;
46597;SDS011;32318;48.858;8.252;2024-02-15T19:27:18;20.30;;;7.50;;
46597;SDS011;32318;48.858;8.252;2024-02-15T19:35:23;26.02;;;8.27;;
46597;SDS011;32318;48.858;8.252;2024-02-15T19:51:27;23.70;;;5.03;;
46597;SDS011;32318;48.858;8.252;2024-02-15T19:59:30;18.42;;;4.72;;
46597;SDS011;32318;48.858;8.252;2024-02-15T20:07:30;13.68;;;4.85;;
46597;SDS011;32318;48.858;8.252;2024-02-15T20:15:32;15.32;;;4.55;;
46597;SDS011;32318;48.858;8.252;2024-02-15T20:23:32;14.90;;;4.90;;
46597;SDS011;32318;48.858;8.252;2024-02-15T20:31:33;13.48;;;5.38;;
46597;SDS011;32318;48.858;8.252;2024-02-15T20:39:33;17.98;;;6.10;;
46597;SDS011;32318;48.858;8.252;2024-02-15T20:47:35;19.02;;;5.32;;
46597;SDS011;32318;48.858;8.252;2024-02-15T20:55:35;16.90;;;5.28;;
46597;SDS011;32318;48.858;8.252;2024-02-15T21:03:38;11.98;;;4.90;;
46597;SDS011;32318;48.858;8.252;2024-02-15T21:11:42;13.00;;;5.45;;
46597;SDS011;32318;48.858;8.252;2024-02-15T21:19:46;13.18;;;4.95;;
46597;SDS011;32318;48.858;8.252;2024-02-15T21:27:46;8.82;;;4.40;;
46597;SDS011;32318;48.858;8.252;2024-02-15T21:35:47;14.90;;;5.35;;
46597;SDS011;32318;48.858;8.252;2024-02-15T21:43:53;16.90;;;5.90;;
46597;SDS011;32318;48.858;8.252;2024-02-15T21:51:53;16.10;;;5.15;;
46597;SDS011;32318;48.858;8.252;2024-02-15T21:59:58;16.03;;;6.30;;
46597;SDS011;32318;48.858;8.252;2024-02-15T22:08:02;13.85;;;5.07;;
46597;SDS011;32318;48.858;8.252;2024-02-15T22:16:06;12.90;;;4.72;;
46597;SDS011;32318;48.858;8.252;2024-02-15T22:24:07;16.50;;;4.72;;
46597;SDS011;32318;48.858;8.252;2024-02-15T22:32:08;13.98;;;4.30;;
46597;SDS011;32318;48.858;8.252;2024-02-15T22:40:10;11.23;;;4.25;;
46597;SDS011;32318;48.858;8.252;2024-02-15T22:48:10;13.23;;;5.13;;
46597;SDS011;32318;48.858;8.252;2024-02-15T22:56:14;7.93;;;3.80;;
46597;SDS011;32318;48.858;8.252;2024-02-15T23:04:14;15.80;;;4.35;;
46597;SDS011;32318;48.858;8.252;2024-02-15T23:12:15;11.88;;;4.82;;
46597;SDS011;32318;48.858;8.252;2024-02-15T23:20:16;17.98;;;4.75;;
46597;SDS011;32318;48.858;8.252;2024-02-15T23:28:16;12.13;;;3.55;;
46597;SDS011;32318;48.858;8.252;2024-02-15T23:36:16;9.73;;;3.30;;
46597;SDS011;32318;48.858;8.252;2024-02-15T23:44:35;6.78;;;2.63;;
46597;SDS011;32318;48.858;8.252;2024-02-15T23:52:35;8.68;;;2.55;;
